Uden/Volkel, Netherlands
Current Conditions -  °F | °C
As of 1:55 PM on Friday 31 Oct 2014 (Local Time) from EHVK Reporting Station
Broken Clouds Broken Clouds  
Wind Chill: 64°   Ceiling: 22000
Heat Index: 64°   Visibility: 6mi
Dew Point: 55°   Wind: 6mph
Humidity: 73%   Direction: 200°SSW
Pressure: 30.15"   Gusts: NA
Location:  51.64°N, 5.66°E
Report Text: EHVK 311255Z AUTO 20005KT 9999 BKN220 18/13 Q1021 BLU 20007KT CAVOK
Loading
Personal Weather Stations






























Interactive Weather Map
Tropical Storm Tracking
New forecast layout! Learn more

10-Day Weather Forecast

Advertisements
Track Severe Weather on mobile